Time;durP1;ratioP1;P1;durP2;ratioP2;P2;SDS_P1;SDS_P2;PMS_P1;PMS_P2;Temp;Humidity;BMP_temperature;BMP_pressure;BME280_temperature;BME280_humidity;BME280_pressure;Samples;Min_cycle;Max_cycle;Signal;HPM_P1;HPM_P2
2022/11/22 00:02:18;;;;;;;9.70;9.20;;;;;;;-143.83;100.00;62900.06;4928989;29;20103;-73
2022/11/22 00:04:43;;;;;;;10.15;9.65;;;;;;;-143.83;100.00;62900.06;4925895;29;20032;-72
2022/11/22 00:07:08;;;;;;;9.63;9.13;;;;;;;-143.83;100.00;62900.06;4927474;29;20065;-74
2022/11/22 00:09:34;;;;;;;10.07;9.57;;;;;;;-143.83;100.00;62900.06;4923321;29;20035;-74
2022/11/22 00:11:59;;;;;;;9.63;9.13;;;;;;;-143.83;100.00;62900.06;4925872;29;20035;-73
2022/11/22 00:14:25;;;;;;;10.00;9.50;;;;;;;-143.83;100.00;62900.06;4927684;29;20551;-74
2022/11/22 00:16:50;;;;;;;9.27;8.88;;;;;;;-143.83;100.00;62900.06;4928320;29;20043;-73
2022/11/22 00:19:16;;;;;;;10.23;9.73;;;;;;;-143.83;100.00;62900.06;4929731;29;20020;-73
2022/11/22 00:21:41;;;;;;;9.27;8.88;;;;;;;-143.83;100.00;62900.06;4911476;29;20051;-73
2022/11/22 00:24:07;;;;;;;9.82;9.32;;;;;;;-143.83;100.00;62900.06;4924748;29;20364;-74
2022/11/22 00:26:32;;;;;;;9.63;9.15;;;;;;;-143.83;100.00;62900.06;4926135;29;20549;-74
2022/11/22 00:28:58;;;;;;;9.88;9.38;;;;;;;-143.83;100.00;62900.06;4927134;29;20584;-74
2022/11/22 00:31:23;;;;;;;9.65;9.15;;;;;;;-143.83;100.00;62900.06;4930888;29;20031;-74
2022/11/22 00:33:49;;;;;;;9.40;8.98;;;;;;;-143.83;100.00;62900.06;4921191;29;20059;-74
2022/11/22 00:36:16;;;;;;;9.40;9.00;;;;;;;-143.83;100.00;62900.06;4907872;29;20122;-74
2022/11/22 00:38:42;;;;;;;9.63;9.13;;;;;;;-143.83;100.00;62900.06;4916000;29;20046;-75
2022/11/22 00:41:08;;;;;;;9.07;8.68;;;;;;;-143.83;100.00;62900.06;4928207;29;20038;-74
2022/11/22 00:43:33;;;;;;;9.30;8.90;;;;;;;-143.83;100.00;62900.06;4906910;29;20047;-75
2022/11/22 00:45:59;;;;;;;9.10;8.70;;;;;;;-143.83;100.00;62900.06;4925337;29;20066;-75
2022/11/22 00:48:26;;;;;;;9.90;9.40;;;;;;;-143.83;100.00;62900.06;4924535;29;20042;-75
2022/11/22 00:50:54;;;;;;;9.75;9.25;;;;;;;-143.83;100.00;62900.06;4928613;29;20512;-75
2022/11/22 00:53:21;;;;;;;10.43;9.88;;;;;;;-143.83;100.00;62900.06;4928136;29;20028;-74
2022/11/22 00:55:47;;;;;;;10.07;9.57;;;;;;;-143.83;100.00;62900.06;4924488;29;20036;-74
2022/11/22 00:58:12;;;;;;;9.27;8.88;;;;;;;-143.83;100.00;62900.06;4923707;29;20020;-75
2022/11/22 01:00:39;;;;;;;9.43;9.02;;;;;;;-143.83;100.00;62900.06;4922112;29;20515;-75
2022/11/22 01:03:05;;;;;;;9.20;8.80;;;;;;;-143.83;100.00;62900.06;4925565;29;20040;-75
2022/11/22 01:05:30;;;;;;;10.27;9.77;;;;;;;-143.83;100.00;62900.06;4926078;29;20028;-75
2022/11/22 01:07:56;;;;;;;9.75;9.25;;;;;;;-143.83;100.00;62900.06;4919828;29;20028;-75
2022/11/22 01:10:22;;;;;;;10.60;10.00;;;;;;;-143.83;100.00;62900.06;4905097;29;20060;-74
2022/11/22 01:12:47;;;;;;;9.80;9.30;;;;;;;-143.83;100.00;62900.06;4914870;29;20040;-74
2022/11/22 01:15:13;;;;;;;9.68;9.20;;;;;;;-143.83;100.00;62900.06;4924750;29;20102;-74
2022/11/22 01:17:38;;;;;;;9.77;9.27;;;;;;;-143.83;100.00;62900.06;4911563;29;20972;-74
2022/11/22 01:20:05;;;;;;;9.65;9.15;;;;;;;-143.83;100.00;62900.06;4928044;29;20039;-74
2022/11/22 01:22:30;;;;;;;10.52;9.95;;;;;;;-143.83;100.00;62900.06;4921813;29;20043;-74
2022/11/22 01:24:56;;;;;;;10.05;9.55;;;;;;;-143.83;100.00;62900.06;4925235;29;20064;-74
2022/11/22 01:27:22;;;;;;;10.23;9.73;;;;;;;-143.83;100.00;62900.06;4922860;29;20502;-74
2022/11/22 01:29:48;;;;;;;9.80;9.30;;;;;;;-143.83;100.00;62900.06;4927251;29;20019;-74
2022/11/22 01:32:14;;;;;;;9.32;8.93;;;;;;;-143.83;100.00;62900.06;4926851;29;20119;-74
2022/11/22 01:34:40;;;;;;;9.50;9.10;;;;;;;-143.83;100.00;62900.06;4908160;29;20032;-74
2022/11/22 01:37:05;;;;;;;9.30;8.90;;;;;;;-143.83;100.00;62900.06;4917472;29;20079;-74
2022/11/22 01:39:31;;;;;;;9.68;9.18;;;;;;;-143.83;100.00;62900.06;4906846;29;20539;-75
2022/11/22 01:41:57;;;;;;;10.82;10.23;;;;;;;-143.83;100.00;62900.06;4921460;29;20028;-74
2022/11/22 01:44:32;;;;;;;9.77;9.27;;;;;;;-143.83;100.00;62900.06;4928359;29;20395;-73
2022/11/22 01:47:08;;;;;;;9.70;9.20;;;;;;;-143.83;100.00;62900.06;4923572;29;20027;-74
2022/11/22 01:50:05;;;;;;;10.50;9.95;;;;;;;-143.83;100.00;62900.06;4926035;29;20028;-75
2022/11/22 01:52:33;;;;;;;9.98;9.48;;;;;;;-143.83;100.00;62900.06;4919369;29;20583;-74
2022/11/22 01:55:06;;;;;;;9.68;9.18;;;;;;;-143.83;100.00;62900.06;4906948;29;20040;-74
2022/11/22 01:57:34;;;;;;;10.20;9.70;;;;;;;-143.83;100.00;62900.06;4906310;29;20028;-72
2022/11/22 02:00:04;;;;;;;10.15;9.65;;;;;;;-143.83;100.00;62900.06;4926686;29;20032;-74
2022/11/22 02:02:30;;;;;;;10.00;9.50;;;;;;;-143.83;100.00;62900.06;4904619;29;20040;-73
2022/11/22 02:05:00;;;;;;;9.45;9.05;;;;;;;-143.83;100.00;62900.06;4924648;29;20032;-74
2022/11/22 02:07:40;;;;;;;9.45;9.05;;;;;;;-143.83;100.00;62900.06;4924171;29;20039;-74
2022/11/22 02:10:07;;;;;;;9.50;9.00;;;;;;;-143.83;100.00;62900.06;4927557;29;20112;-73
2022/11/22 02:12:35;;;;;;;9.95;9.45;;;;;;;-143.83;100.00;62900.06;4923254;29;20079;-73
2022/11/22 02:15:01;;;;;;;9.73;9.23;;;;;;;-143.83;100.00;62900.06;4925862;29;20038;-74
2022/11/22 02:17:27;;;;;;;10.25;9.75;;;;;;;-143.83;100.00;62900.06;4904389;29;20031;-74
2022/11/22 02:19:54;;;;;;;9.38;8.95;;;;;;;-143.83;100.00;62900.06;4924527;29;20037;-74
2022/11/22 02:22:31;;;;;;;10.07;9.57;;;;;;;-143.83;100.00;62900.06;4926426;29;20047;-74
2022/11/22 02:25:25;;;;;;;9.60;9.10;;;;;;;-143.83;100.00;62900.06;4926661;29;20048;-74
2022/11/22 02:27:50;;;;;;;9.50;9.10;;;;;;;-143.83;100.00;62900.06;4927180;29;20086;-74
2022/11/22 02:30:17;;;;;;;9.70;9.20;;;;;;;-143.83;100.00;62900.06;4925921;29;20060;-73
2022/11/22 02:32:43;;;;;;;9.38;8.98;;;;;;;-143.83;100.00;62900.06;4924257;29;20030;-73
2022/11/22 02:35:19;;;;;;;9.63;9.15;;;;;;;-143.83;100.00;62900.06;4922142;29;20047;-73
2022/11/22 02:37:48;;;;;;;9.77;9.27;;;;;;;-143.83;100.00;62900.06;4904667;29;20066;-73
2022/11/22 02:40:16;;;;;;;9.85;9.35;;;;;;;-143.83;100.00;62900.06;4913697;29;20546;-73
2022/11/22 02:42:48;;;;;;;9.43;9.02;;;;;;;-143.83;100.00;62900.06;4924290;29;20476;-73
2022/11/22 02:45:14;;;;;;;9.48;9.07;;;;;;;-143.83;100.00;62900.06;4926444;29;20032;-74
2022/11/22 02:47:40;;;;;;;9.60;9.10;;;;;;;-143.83;100.00;62900.06;4920831;29;20092;-73
2022/11/22 02:50:06;;;;;;;10.07;9.57;;;;;;;-143.83;100.00;62900.06;4911932;29;20043;-74
2022/11/22 02:52:31;;;;;;;10.10;9.60;;;;;;;-143.83;100.00;62900.06;4912552;29;20353;-74
2022/11/22 02:54:57;;;;;;;9.20;8.80;;;;;;;-143.83;100.00;62900.06;4910077;29;20028;-74
2022/11/22 02:57:22;;;;;;;9.85;9.35;;;;;;;-143.83;100.00;62900.06;4928083;29;20035;-73
2022/11/22 02:59:48;;;;;;;9.13;8.73;;;;;;;-143.83;100.00;62900.06;4922917;29;20028;-73
2022/11/22 03:02:13;;;;;;;10.07;9.57;;;;;;;-143.83;100.00;62900.06;4908165;29;20095;-74
2022/11/22 03:04:39;;;;;;;9.82;9.32;;;;;;;-143.83;100.00;62900.06;4923405;29;20078;-74
2022/11/22 03:07:04;;;;;;;9.13;8.73;;;;;;;-143.83;100.00;62900.06;4924854;29;20043;-74
2022/11/22 03:09:31;;;;;;;9.50;9.05;;;;;;;-143.83;100.00;62900.06;4930883;29;20023;-74
2022/11/22 03:11:56;;;;;;;9.73;9.23;;;;;;;-143.83;100.00;62900.06;4931466;29;20050;-73
2022/11/22 03:14:22;;;;;;;10.13;9.63;;;;;;;-143.83;100.00;62900.06;4927407;29;20032;-74
2022/11/22 03:16:48;;;;;;;9.98;9.48;;;;;;;-143.83;100.00;62900.06;4910737;29;20079;-73
2022/11/22 03:19:14;;;;;;;9.40;9.00;;;;;;;-143.83;100.00;62900.06;4925689;29;20436;-74
2022/11/22 03:21:41;;;;;;;9.20;8.80;;;;;;;-143.83;100.00;62900.06;4929647;29;20139;-74
2022/11/22 03:24:07;;;;;;;10.32;9.82;;;;;;;-143.83;100.00;62900.06;4910628;29;20499;-74
2022/11/22 03:26:34;;;;;;;10.13;9.63;;;;;;;-143.83;100.00;62900.06;4932152;29;20436;-73
2022/11/22 03:29:00;;;;;;;9.75;9.25;;;;;;;-143.83;100.00;62900.06;4930797;29;20039;-73
2022/11/22 03:31:25;;;;;;;11.05;10.45;;;;;;;-143.83;100.00;62900.06;4925266;29;20095;-73
2022/11/22 03:33:51;;;;;;;9.88;9.38;;;;;;;-143.83;100.00;62900.06;4930693;29;20032;-73
2022/11/22 03:36:17;;;;;;;10.40;9.88;;;;;;;-143.83;100.00;62900.06;4924533;29;20103;-73
2022/11/22 03:38:42;;;;;;;9.82;9.32;;;;;;;-143.83;100.00;62900.06;4916481;29;20059;-73
2022/11/22 03:41:07;;;;;;;9.30;8.90;;;;;;;-143.83;100.00;62900.06;4924519;29;20023;-72
2022/11/22 03:43:33;;;;;;;9.38;8.98;;;;;;;-143.83;100.00;62900.06;4910409;29;20028;-74
2022/11/22 03:45:59;;;;;;;9.73;9.23;;;;;;;-143.83;100.00;62900.06;4925864;29;20114;-73
2022/11/22 03:48:24;;;;;;;10.68;10.10;;;;;;;-143.83;100.00;62900.06;4932130;29;20036;-73
2022/11/22 03:50:50;;;;;;;10.20;9.70;;;;;;;-143.83;100.00;62900.06;4929319;29;20031;-74
2022/11/22 03:53:15;;;;;;;10.18;9.68;;;;;;;-143.83;100.00;62900.06;4925326;29;20051;-73
2022/11/22 03:55:41;;;;;;;9.60;9.20;;;;;;;-143.83;100.00;62900.06;4930061;29;20038;-74
2022/11/22 03:58:07;;;;;;;9.85;9.35;;;;;;;-143.83;100.00;62900.06;4918593;29;20551;-74
2022/11/22 04:00:33;;;;;;;10.35;9.85;;;;;;;-143.83;100.00;62900.06;4911280;29;20045;-74
2022/11/22 04:02:59;;;;;;;9.43;9.00;;;;;;;-143.83;100.00;62900.06;4910524;29;20187;-75
2022/11/22 04:05:24;;;;;;;10.00;9.50;;;;;;;-143.83;100.00;62900.06;4930048;29;20054;-74
2022/11/22 04:07:54;;;;;;;9.68;9.18;;;;;;;-143.83;100.00;62900.06;4910081;29;20031;-73
2022/11/22 04:10:22;;;;;;;9.88;9.38;;;;;;;-143.83;100.00;62900.06;4925517;29;20051;-73
2022/11/22 04:12:47;;;;;;;9.50;9.00;;;;;;;-143.83;100.00;62900.06;4925159;29;20062;-72
2022/11/22 04:15:13;;;;;;;9.95;9.45;;;;;;;-143.83;100.00;62900.06;4911727;29;20059;-72
2022/11/22 04:17:44;;;;;;;9.65;9.15;;;;;;;-143.83;100.00;62900.06;4929248;29;20110;-74
2022/11/22 04:23:10;;;;;;;9.07;8.68;;;;;;;-143.83;100.00;62900.06;4931262;29;20042;-74
2022/11/22 04:25:38;;;;;;;9.60;9.18;;;;;;;-143.83;100.00;62900.06;4927841;29;20055;-74
2022/11/22 04:28:07;;;;;;;9.40;9.00;;;;;;;-143.83;100.00;62900.06;4917021;29;20055;-73
2022/11/22 04:33:18;;;;;;;9.75;9.25;;;;;;;-143.83;100.00;62900.06;4927150;29;20065;-72
2022/11/22 04:35:44;;;;;;;9.70;9.20;;;;;;;-143.83;100.00;62900.06;4925575;29;20487;-72
2022/11/22 04:38:11;;;;;;;9.52;9.10;;;;;;;-143.83;100.00;62900.06;4925799;29;20083;-74
2022/11/22 04:40:37;;;;;;;10.15;9.65;;;;;;;-143.83;100.00;62900.06;4920942;29;20028;-72
2022/11/22 04:45:47;;;;;;;9.80;9.30;;;;;;;-143.83;100.00;62900.06;4922493;29;20061;-74
2022/11/22 04:48:13;;;;;;;10.32;9.80;;;;;;;-143.83;100.00;62900.06;4922875;29;20480;-67
2022/11/22 04:53:24;;;;;;;9.73;9.23;;;;;;;-143.83;100.00;62900.06;4923979;29;20031;-68
2022/11/22 04:55:50;;;;;;;9.40;9.00;;;;;;;-143.83;100.00;62900.06;4912160;29;20031;-68
2022/11/22 04:58:16;;;;;;;9.98;9.48;;;;;;;-143.83;100.00;62900.06;4921380;29;20030;-67
2022/11/22 05:00:42;;;;;;;10.45;9.95;;;;;;;-143.83;100.00;62900.06;4915937;29;21197;-67
2022/11/22 05:03:09;;;;;;;10.25;9.75;;;;;;;-143.83;100.00;62900.06;4924268;29;20055;-68
2022/11/22 05:05:36;;;;;;;9.80;9.30;;;;;;;-143.83;100.00;62900.06;4924204;29;20118;-67
2022/11/22 05:08:02;;;;;;;10.43;9.93;;;;;;;-143.83;100.00;62900.06;4921676;29;20050;-66
2022/11/22 05:10:27;;;;;;;11.30;10.70;;;;;;;-143.83;100.00;62900.06;4925289;29;20031;-73
2022/11/22 05:12:54;;;;;;;9.70;9.20;;;;;;;-143.83;100.00;62900.06;4926753;29;20016;-71
2022/11/22 05:15:19;;;;;;;11.02;10.43;;;;;;;-143.83;100.00;62900.06;4924455;29;20459;-72
2022/11/22 05:17:45;;;;;;;10.27;9.77;;;;;;;-143.83;100.00;62900.06;4928839;29;20106;-73
2022/11/22 05:20:10;;;;;;;9.95;9.45;;;;;;;-143.83;100.00;62900.06;4923833;29;20047;-72
2022/11/22 05:25:21;;;;;;;11.27;10.68;;;;;;;-143.83;100.00;62900.06;4927517;29;20057;-71
2022/11/22 05:27:47;;;;;;;10.20;9.70;;;;;;;-143.83;100.00;62900.06;4926042;29;20031;-72
2022/11/22 05:30:13;;;;;;;10.60;10.07;;;;;;;-143.83;100.00;62900.06;4906545;29;20051;-72
2022/11/22 05:32:38;;;;;;;9.85;9.35;;;;;;;-143.83;100.00;62900.06;4923238;29;20023;-73
2022/11/22 05:35:05;;;;;;;9.85;9.35;;;;;;;-143.83;100.00;62900.06;4924160;29;20067;-74
2022/11/22 05:37:30;;;;;;;11.60;10.90;;;;;;;-143.83;100.00;62900.06;4910647;29;20506;-73
2022/11/22 05:39:55;;;;;;;9.98;9.48;;;;;;;-143.83;100.00;62900.06;4921630;29;20038;-73
2022/11/22 05:42:21;;;;;;;11.23;10.63;;;;;;;-143.83;100.00;62900.06;4922805;29;20039;-75
2022/11/22 05:44:46;;;;;;;10.95;10.35;;;;;;;-143.83;100.00;62900.06;4921878;29;20024;-72
2022/11/22 05:47:12;;;;;;;11.27;10.68;;;;;;;-143.83;100.00;62900.06;4913915;29;20054;-73
2022/11/22 05:49:37;;;;;;;10.10;9.60;;;;;;;-143.83;100.00;62900.06;4928815;29;20474;-73
2022/11/22 05:52:03;;;;;;;10.65;10.07;;;;;;;-143.83;100.00;62900.06;4924063;29;20159;-73
2022/11/22 05:54:29;;;;;;;9.85;9.35;;;;;;;-143.83;100.00;62900.06;4926686;29;20519;-73
2022/11/22 05:56:55;;;;;;;10.27;9.77;;;;;;;-143.83;100.00;62900.06;4912936;29;20292;-73
2022/11/22 05:59:20;;;;;;;10.23;9.73;;;;;;;-143.83;100.00;62900.06;4927657;29;20039;-74
2022/11/22 06:01:46;;;;;;;10.43;9.93;;;;;;;-143.83;100.00;62900.06;4926736;29;20372;-72
2022/11/22 06:04:11;;;;;;;11.00;10.40;;;;;;;-143.83;100.00;62900.06;4921462;29;20023;-72
2022/11/22 06:06:37;;;;;;;10.27;9.77;;;;;;;-143.83;100.00;62900.06;4930373;29;20566;-74
2022/11/22 06:09:02;;;;;;;11.00;10.40;;;;;;;-143.83;100.00;62900.06;4925953;29;20162;-73
2022/11/22 06:11:28;;;;;;;10.23;9.73;;;;;;;-143.83;100.00;62900.06;4925760;29;20051;-72
2022/11/22 06:13:59;;;;;;;10.85;10.25;;;;;;;-143.83;100.00;62900.06;4922728;29;20020;-70
2022/11/22 06:16:26;;;;;;;11.02;10.43;;;;;;;-143.83;100.00;62900.06;4923143;29;20062;-71
2022/11/22 06:18:55;;;;;;;10.93;10.32;;;;;;;-143.83;100.00;62900.06;4924044;29;20031;-70
2022/11/22 06:21:24;;;;;;;10.25;9.73;;;;;;;-143.83;100.00;62900.06;4922021;29;20150;-73
2022/11/22 06:23:53;;;;;;;9.27;8.88;;;;;;;-143.83;100.00;62900.06;4920192;29;20031;-74
2022/11/22 06:26:21;;;;;;;10.77;10.18;;;;;;;-143.83;100.00;62900.06;4904355;29;20139;-76
2022/11/22 06:28:48;;;;;;;10.50;9.93;;;;;;;-143.83;100.00;62900.06;4908910;29;20450;-76
2022/11/22 06:31:19;;;;;;;9.30;8.90;;;;;;;-143.83;100.00;62900.06;4924372;29;20059;-76
2022/11/22 06:33:45;;;;;;;9.68;9.18;;;;;;;-143.83;100.00;62900.06;4922311;29;20574;-75
2022/11/22 06:36:16;;;;;;;10.77;10.18;;;;;;;-143.83;100.00;62900.06;4918179;29;20122;-73
2022/11/22 06:38:42;;;;;;;11.02;10.43;;;;;;;-143.83;100.00;62900.06;4921048;29;20511;-73
2022/11/22 06:41:10;;;;;;;10.20;9.70;;;;;;;-143.83;100.00;62900.06;4921276;29;20123;-71
2022/11/22 06:43:37;;;;;;;10.13;9.63;;;;;;;-143.83;100.00;62900.06;4923758;29;20031;-74
2022/11/22 06:46:04;;;;;;;10.50;9.95;;;;;;;-143.83;100.00;62900.06;4909535;29;20036;-73
2022/11/22 06:48:33;;;;;;;11.02;10.43;;;;;;;-143.83;100.00;62900.06;4906915;29;20032;-75
2022/11/22 06:50:59;;;;;;;9.88;9.38;;;;;;;-143.83;100.00;62900.06;4910294;29;20036;-75
2022/11/22 06:53:28;;;;;;;12.20;11.45;;;;;;;-143.83;100.00;62900.06;4928884;29;20063;-74
2022/11/22 06:56:01;;;;;;;11.32;10.73;;;;;;;-143.83;100.00;62900.06;4927619;29;20034;-71
2022/11/22 06:58:27;;;;;;;12.82;12.02;;;;;;;-143.83;100.00;62900.06;4922627;29;20075;-71
2022/11/22 07:01:02;;;;;;;10.70;10.10;;;;;;;-143.83;100.00;62900.06;4925039;29;20059;-71
2022/11/22 07:03:28;;;;;;;10.23;9.73;;;;;;;-143.83;100.00;62900.06;4919720;29;20059;-71
2022/11/22 07:05:54;;;;;;;10.32;9.82;;;;;;;-143.83;100.00;62900.06;4927314;29;20054;-71
2022/11/22 07:08:20;;;;;;;10.73;10.13;;;;;;;-143.83;100.00;62900.06;4905817;29;20027;-74
2022/11/22 07:10:45;;;;;;;9.82;9.32;;;;;;;-143.83;100.00;62900.06;4913563;29;20031;-75
2022/11/22 07:13:11;;;;;;;10.07;9.57;;;;;;;-143.83;100.00;62900.06;4924806;29;20039;-73
2022/11/22 07:15:36;;;;;;;10.98;10.38;;;;;;;-143.83;100.00;62900.06;4911041;29;20032;-74
2022/11/22 07:18:02;;;;;;;10.20;9.70;;;;;;;-143.83;100.00;62900.06;4925552;29;20044;-74
2022/11/22 07:20:27;;;;;;;10.00;9.50;;;;;;;-143.83;100.00;62900.06;4925199;29;20118;-74
2022/11/22 07:22:53;;;;;;;10.23;9.73;;;;;;;-143.83;100.00;62900.06;4926138;29;20030;-74
2022/11/22 07:25:18;;;;;;;10.15;9.63;;;;;;;-143.83;100.00;62900.06;4926573;29;20047;-74
2022/11/22 07:27:44;;;;;;;9.95;9.45;;;;;;;-143.83;100.00;62900.06;4930921;29;20027;-73
2022/11/22 07:30:10;;;;;;;10.10;9.60;;;;;;;-143.83;100.00;62900.06;4912263;29;20024;-71
2022/11/22 07:32:35;;;;;;;9.88;9.38;;;;;;;-143.83;100.00;62900.06;4890778;29;20024;-74
2022/11/22 07:35:01;;;;;;;11.63;11.00;;;;;;;-143.83;100.00;62900.06;4924529;29;20063;-75
2022/11/22 07:37:30;;;;;;;9.90;9.40;;;;;;;-143.83;100.00;62900.06;4909250;29;20055;-76
2022/11/22 07:39:56;;;;;;;10.23;9.73;;;;;;;-143.83;100.00;62900.06;4905770;29;20038;-75
2022/11/22 07:42:22;;;;;;;10.50;10.00;;;;;;;-143.83;100.00;62900.06;4923758;29;20079;-73
2022/11/22 07:44:47;;;;;;;9.73;9.23;;;;;;;-143.83;100.00;62900.06;4926474;29;20047;-73
2022/11/22 07:47:13;;;;;;;10.43;9.93;;;;;;;-143.83;100.00;62900.06;4923595;29;20024;-74
2022/11/22 07:49:38;;;;;;;10.65;10.07;;;;;;;-143.83;100.00;62900.06;4924980;29;20028;-73
2022/11/22 07:52:06;;;;;;;10.18;9.68;;;;;;;-143.83;100.00;62900.06;4926454;29;20099;-75
2022/11/22 07:54:31;;;;;;;10.40;9.90;;;;;;;-143.83;100.00;62900.06;4924953;29;20024;-73
2022/11/22 07:56:57;;;;;;;10.18;9.68;;;;;;;-143.83;100.00;62900.06;4926744;29;20036;-73
2022/11/22 07:59:23;;;;;;;10.52;9.98;;;;;;;-143.83;100.00;62900.06;4924831;29;20040;-72
2022/11/22 08:01:48;;;;;;;9.48;9.07;;;;;;;-143.83;100.00;62900.06;4924566;29;20373;-74
2022/11/22 08:04:14;;;;;;;11.38;10.77;;;;;;;-143.83;100.00;62900.06;4924891;29;20031;-74
2022/11/22 08:06:39;;;;;;;10.20;9.70;;;;;;;-143.83;100.00;62900.06;4924393;29;20031;-73
2022/11/22 08:09:05;;;;;;;10.75;10.18;;;;;;;-143.83;100.00;62900.06;4910878;29;20043;-73
2022/11/22 08:11:30;;;;;;;11.35;10.75;;;;;;;-143.83;100.00;62900.06;4907610;29;20070;-73
2022/11/22 08:13:56;;;;;;;9.82;9.32;;;;;;;-143.83;100.00;62900.06;4926141;29;20502;-74
2022/11/22 08:16:21;;;;;;;10.32;9.82;;;;;;;-143.83;100.00;62900.06;4927323;29;20522;-74
2022/11/22 08:18:50;;;;;;;11.10;10.50;;;;;;;-143.83;100.00;62900.06;4926473;29;20118;-73
2022/11/22 08:21:17;;;;;;;11.02;10.43;;;;;;;-143.83;100.00;62900.06;4922773;29;20035;-74
2022/11/22 08:23:44;;;;;;;10.38;9.88;;;;;;;-143.83;100.00;62900.06;4908956;29;20027;-75
2022/11/22 08:26:13;;;;;;;10.70;10.18;;;;;;;-143.83;100.00;62900.06;4908018;29;20087;-66
2022/11/22 08:28:40;;;;;;;10.18;9.68;;;;;;;-143.83;100.00;62900.06;4923042;29;20020;-67
2022/11/22 08:31:12;;;;;;;11.02;10.43;;;;;;;-143.83;100.00;62900.06;4925262;29;20042;-67
2022/11/22 08:33:37;;;;;;;11.35;10.75;;;;;;;-143.83;100.00;62900.06;4926779;29;20039;-67
2022/11/22 08:36:03;;;;;;;10.30;9.80;;;;;;;-143.83;100.00;62900.06;4924207;29;20035;-66
2022/11/22 08:38:29;;;;;;;11.38;10.77;;;;;;;-143.83;100.00;62900.06;4918423;29;20414;-67
2022/11/22 08:40:55;;;;;;;10.95;10.35;;;;;;;-143.83;100.00;62900.06;4904160;29;20396;-67
2022/11/22 08:43:21;;;;;;;10.95;10.35;;;;;;;-143.83;100.00;62900.06;4926919;29;20422;-67
2022/11/22 08:45:55;;;;;;;10.35;9.85;;;;;;;-143.83;100.00;62900.06;4915858;29;20101;-66
2022/11/22 08:48:21;;;;;;;11.10;10.50;;;;;;;-143.83;100.00;62900.06;4923601;29;20527;-65
2022/11/22 08:50:55;;;;;;;10.95;10.38;;;;;;;-143.83;100.00;62900.06;4923383;29;20155;-68
2022/11/22 08:53:21;;;;;;;11.98;11.30;;;;;;;-143.83;100.00;62900.06;4927638;29;20115;-72
2022/11/22 08:55:47;;;;;;;10.18;9.68;;;;;;;-143.83;100.00;62900.06;4922019;29;20031;-72
2022/11/22 08:58:13;;;;;;;10.55;10.05;;;;;;;-143.83;100.00;62900.06;4912881;29;20039;-70
2022/11/22 09:00:38;;;;;;;10.40;9.90;;;;;;;-143.83;100.00;62900.06;4917813;29;20101;-68
2022/11/22 09:03:04;;;;;;;10.10;9.60;;;;;;;-143.83;100.00;62900.06;4923511;29;20031;-78
2022/11/22 09:05:30;;;;;;;9.77;9.30;;;;;;;-143.83;100.00;62900.06;4923112;29;20064;-77
2022/11/22 09:07:57;;;;;;;9.77;9.35;;;;;;;-143.83;100.00;62900.06;4925188;29;20035;-76
2022/11/22 09:10:22;;;;;;;9.80;9.38;;;;;;;-143.83;100.00;62900.06;4909360;29;20024;-75
2022/11/22 09:12:47;;;;;;;9.70;9.30;;;;;;;-143.83;100.00;62900.06;4925544;29;20035;-76
2022/11/22 09:15:14;;;;;;;10.75;10.25;;;;;;;-143.83;100.00;62900.06;4926566;29;20035;-75
2022/11/22 09:17:41;;;;;;;9.75;9.35;;;;;;;-143.83;100.00;62900.06;4922510;29;20024;-76
2022/11/22 09:20:07;;;;;;;10.35;9.85;;;;;;;-143.83;100.00;62900.06;4907316;29;20031;-76
2022/11/22 09:22:34;;;;;;;10.55;10.05;;;;;;;-143.83;100.00;62900.06;4921913;29;20510;-75
2022/11/22 09:24:59;;;;;;;10.27;9.77;;;;;;;-143.83;100.00;62900.06;4925626;29;20044;-76
2022/11/22 09:27:25;;;;;;;10.88;10.38;;;;;;;-143.83;100.00;62900.06;4927495;29;20078;-76
2022/11/22 09:29:51;;;;;;;10.55;10.05;;;;;;;-143.83;100.00;62900.06;4927916;29;20075;-78
2022/11/22 09:32:17;;;;;;;10.10;9.60;;;;;;;-143.83;100.00;62900.06;4907437;29;20043;-77
2022/11/22 09:34:42;;;;;;;10.07;9.60;;;;;;;-143.83;100.00;62900.06;4924481;29;20032;-77
2022/11/22 09:37:08;;;;;;;10.27;9.77;;;;;;;-143.83;100.00;62900.06;4917271;29;20090;-76
2022/11/22 09:39:33;;;;;;;10.57;10.07;;;;;;;-143.83;100.00;62900.06;4909611;29;20408;-74
2022/11/22 09:42:05;;;;;;;10.70;10.20;;;;;;;-143.83;100.00;62900.06;4926520;29;20040;-78
2022/11/22 09:44:51;;;;;;;10.35;9.85;;;;;;;-143.83;100.00;62900.06;4921002;29;20036;-76
2022/11/22 09:47:45;;;;;;;9.85;9.40;;;;;;;-143.83;100.00;62900.06;4924946;29;20070;-76
2022/11/22 09:50:22;;;;;;;10.82;10.32;;;;;;;-143.83;100.00;62900.06;4909680;29;20396;-76
2022/11/22 09:52:54;;;;;;;10.30;9.80;;;;;;;-143.83;100.00;62900.06;4912805;29;20028;-76
2022/11/22 09:55:35;;;;;;;10.73;10.23;;;;;;;-143.83;100.00;62900.06;4925873;29;20063;-75
2022/11/22 09:58:22;;;;;;;11.55;10.95;;;;;;;-143.83;100.00;62900.06;4918828;29;20502;-75
2022/11/22 10:00:48;;;;;;;10.45;9.95;;;;;;;-143.83;100.00;62900.06;4924433;29;20078;-77
2022/11/22 10:03:39;;;;;;;10.43;9.93;;;;;;;-143.83;100.00;62900.06;4921052;29;20035;-74
2022/11/22 10:06:11;;;;;;;10.20;9.70;;;;;;;-143.83;100.00;62900.06;4920666;29;20495;-74
2022/11/22 10:09:00;;;;;;;10.10;9.60;;;;;;;-143.83;100.00;62900.06;4923646;29;20158;-74
2022/11/22 10:11:34;;;;;;;10.35;9.85;;;;;;;-143.83;100.00;62900.06;4925605;29;20479;-75
2022/11/22 10:14:05;;;;;;;10.52;10.02;;;;;;;-143.83;100.00;62900.06;4919207;29;20043;-73
2022/11/22 10:16:51;;;;;;;11.68;11.07;;;;;;;-143.83;100.00;62900.06;4925033;29;20071;-74
2022/11/22 10:19:22;;;;;;;11.05;10.55;;;;;;;-143.83;100.00;62900.06;4923336;29;20499;-75
2022/11/22 10:21:48;;;;;;;11.93;11.32;;;;;;;-143.83;100.00;62900.06;4921922;29;20035;-74
2022/11/22 10:24:16;;;;;;;11.43;10.82;;;;;;;-143.83;100.00;62900.06;4925323;29;20031;-73
2022/11/22 10:26:42;;;;;;;10.48;9.98;;;;;;;-143.83;100.00;62900.06;4923726;29;20079;-68
2022/11/22 10:29:18;;;;;;;10.38;9.88;;;;;;;-143.83;100.00;62900.06;4922274;29;20055;-76
2022/11/22 10:31:52;;;;;;;11.18;10.57;;;;;;;-143.83;100.00;62900.06;4922504;29;20115;-77
2022/11/22 10:34:42;;;;;;;10.98;10.45;;;;;;;-143.83;100.00;62900.06;4906931;29;20088;-75
2022/11/22 10:37:10;;;;;;;10.50;10.00;;;;;;;-143.83;100.00;62900.06;4922740;29;20032;-76
2022/11/22 10:39:50;;;;;;;10.95;10.40;;;;;;;-143.83;100.00;62900.06;4922055;29;20110;-78
2022/11/22 10:42:48;;;;;;;10.80;10.30;;;;;;;-143.83;100.00;62900.06;4923813;29;20031;-74
2022/11/22 10:45:26;;;;;;;11.38;10.77;;;;;;;-143.83;100.00;62900.06;4924376;29;20031;-76
2022/11/22 10:48:00;;;;;;;10.00;9.50;;;;;;;-143.83;100.00;62900.06;4927127;29;20032;-78
2022/11/22 10:50:50;;;;;;;;;;;;;;;-143.83;100.00;62900.06;4920140;29;20046;-76
2022/11/22 10:53:29;;;;;;;10.55;10.05;;;;;;;-143.83;100.00;62900.06;4911377;29;19918;-77
2022/11/22 10:56:28;;;;;;;9.70;9.30;;;;;;;-143.83;100.00;62900.06;4919818;29;20029;-74
2022/11/22 10:59:01;;;;;;;10.00;9.50;;;;;;;-143.83;100.00;62900.06;4923960;29;20483;-76
2022/11/22 11:01:50;;;;;;;10.30;9.80;;;;;;;-143.83;100.00;62900.06;4923170;29;20032;-79
2022/11/22 11:04:17;;;;;;;10.63;10.13;;;;;;;-143.83;100.00;62900.06;4920479;29;20040;-77
2022/11/22 11:06:48;;;;;;;11.35;10.75;;;;;;;-143.83;100.00;62900.06;4908560;29;20083;-76
2022/11/22 11:09:21;;;;;;;10.57;10.07;;;;;;;-143.83;100.00;62900.06;4923653;29;20082;-76
2022/11/22 11:11:51;;;;;;;10.00;9.50;;;;;;;-143.83;100.00;62900.06;4924464;29;20036;-77
2022/11/22 11:14:25;;;;;;;10.30;9.80;;;;;;;-143.83;100.00;62900.06;4921831;29;20039;-75
2022/11/22 11:16:53;;;;;;;;;;;;;;;-143.83;100.00;62900.06;4902467;29;20031;-80
2022/11/22 11:19:23;;;;;;;10.32;9.82;;;;;;;-143.83;100.00;62900.06;4915043;29;19922;-79
2022/11/22 11:22:21;;;;;;;10.00;9.50;;;;;;;-143.83;100.00;62900.06;4924744;29;20035;-79